createdAt,value
2017-10-23T16:13:08.281Z,9.00
2017-10-23T16:14:08.251Z,6.20
2017-10-23T16:16:01.139Z,6.60
2017-10-23T16:17:01.112Z,6.70
2017-10-23T16:18:53.987Z,6.50
2017-10-23T16:19:53.976Z,6.70
2017-10-23T16:21:46.989Z,6.10
2017-10-23T16:22:46.841Z,6.00
2017-10-23T16:24:39.713Z,8.40
2017-10-23T16:25:39.703Z,8.60
2017-10-23T16:27:32.591Z,6.20
2017-10-23T16:28:32.569Z,7.40
2017-10-23T16:30:25.434Z,5.80
2017-10-23T16:31:25.428Z,8.20
2017-10-23T16:33:18.317Z,9.00
2017-10-23T16:34:18.295Z,7.80
2017-10-23T16:36:11.167Z,7.60
2017-10-23T16:37:11.158Z,6.20
2017-10-23T16:39:04.056Z,7.60
2017-10-23T16:40:04.021Z,6.90
2017-10-23T16:41:04.023Z,8.00
2017-10-23T16:42:04.020Z,9.00
2017-10-23T16:43:04.023Z,10.00
2017-10-23T16:44:04.032Z,8.10
2017-10-23T16:45:04.015Z,8.30
2017-10-23T16:46:04.023Z,8.40
2017-10-23T16:47:04.004Z,11.00
2017-10-23T16:48:04.526Z,11.30
2017-10-23T16:49:04.001Z,8.80
2017-10-23T16:50:03.996Z,11.00
2017-10-23T16:51:03.993Z,10.20
2017-10-23T16:52:04.016Z,11.60
2017-10-23T16:53:04.018Z,11.00
2017-10-23T16:54:03.982Z,9.80
2017-10-23T16:55:03.994Z,10.20
2017-10-23T16:56:04.016Z,9.70
2017-10-23T16:57:03.972Z,10.50
2017-10-23T16:58:03.991Z,8.90
2017-10-23T16:59:03.977Z,9.10
2017-10-23T17:00:03.978Z,11.40
2017-10-23T17:01:03.991Z,9.60
2017-10-23T17:02:03.991Z,9.80
2017-10-23T17:03:03.966Z,11.90
2017-10-23T17:04:03.948Z,10.20
2017-10-23T17:05:03.943Z,12.40
2017-10-23T17:06:03.939Z,8.80
2017-10-23T17:07:03.961Z,10.30
2017-10-23T17:08:03.929Z,8.20
2017-10-23T17:09:03.924Z,9.30
2017-10-23T17:10:03.924Z,7.70
2017-10-23T17:11:03.922Z,8.80
2017-10-23T17:12:03.918Z,9.30
2017-10-23T17:13:03.920Z,9.60
2017-10-23T17:14:03.908Z,14.40
2017-10-23T17:15:03.914Z,11.90
2017-10-23T17:16:03.904Z,8.30
2017-10-23T17:17:03.903Z,9.50
2017-10-23T17:18:03.893Z,6.70
2017-10-23T17:19:03.891Z,10.30
2017-10-23T17:20:03.889Z,9.20
2017-10-23T17:21:03.886Z,9.60
2017-10-23T17:22:03.884Z,9.90
2017-10-23T17:23:03.878Z,8.80
2017-10-23T17:24:03.873Z,9.10
2017-10-23T17:25:03.871Z,9.70
2017-10-23T17:26:03.876Z,6.80
2017-10-23T17:27:03.856Z,10.60
2017-10-23T17:28:03.876Z,11.90
2017-10-23T17:29:03.858Z,14.50
2017-10-23T17:30:03.855Z,13.90
2017-10-23T17:31:03.853Z,15.30
2017-10-23T17:32:03.851Z,10.20
2017-10-23T17:33:03.844Z,10.70
2017-10-23T17:34:03.845Z,11.40
2017-10-23T17:35:03.838Z,8.50
2017-10-23T17:36:03.840Z,8.80
2017-10-23T17:37:03.829Z,9.30
2017-10-23T17:38:03.824Z,9.80
2017-10-23T17:39:03.820Z,10.20
2017-10-23T17:40:03.814Z,12.20
2017-10-23T17:41:03.826Z,8.20
2017-10-23T17:42:03.968Z,8.30
2017-10-23T17:43:03.828Z,7.30
2017-10-23T17:44:03.821Z,9.20
2017-10-23T17:45:03.804Z,9.00
2017-10-23T17:46:03.849Z,11.70
2017-10-23T17:47:03.794Z,8.40
2017-10-23T17:49:03.786Z,9.00
2017-10-23T17:50:03.783Z,8.60
2017-10-23T17:51:03.776Z,8.30
2017-10-23T17:52:03.783Z,9.00
2017-10-23T17:53:03.797Z,7.40
2017-10-23T17:54:03.769Z,6.60
2017-10-23T17:55:03.758Z,9.60
2017-10-23T17:56:03.758Z,12.10
2017-10-23T17:57:03.754Z,7.90
2017-10-23T17:58:03.753Z,7.80
2017-10-23T17:59:03.749Z,10.00
2017-10-23T18:00:03.745Z,7.60
2017-10-23T18:01:03.750Z,10.50
2017-10-23T18:02:03.729Z,9.60
2017-10-23T18:03:03.729Z,9.70
2017-10-23T18:04:03.736Z,6.60
2017-10-23T18:05:03.744Z,5.80
2017-10-23T18:06:03.724Z,6.20
2017-10-23T18:07:03.717Z,8.80
2017-10-23T18:08:03.709Z,7.70
2017-10-23T18:09:03.706Z,7.80
2017-10-23T18:10:03.701Z,8.70
2017-10-23T18:11:03.703Z,4.60
2017-10-23T18:12:03.701Z,6.00
2017-10-23T18:13:03.699Z,5.00
2017-10-23T18:14:03.696Z,7.00
2017-10-23T18:15:03.684Z,6.50
2017-10-23T18:16:03.679Z,6.50
2017-10-23T18:17:03.678Z,5.20
2017-10-23T18:18:03.676Z,6.00
2017-10-23T18:19:03.678Z,8.00
2017-10-23T18:20:03.668Z,7.20
2017-10-23T18:21:03.665Z,7.20
2017-10-23T18:22:03.661Z,9.60
2017-10-23T18:23:03.673Z,8.30
2017-10-23T18:24:03.655Z,6.00
2017-10-23T18:25:03.648Z,9.10
2017-10-23T18:26:03.643Z,9.00
2017-10-23T18:27:03.638Z,9.20
2017-10-23T18:28:03.632Z,10.80
2017-10-23T18:29:03.627Z,11.00
2017-10-23T18:30:03.624Z,11.20
2017-10-23T18:31:03.624Z,9.50
2017-10-23T18:32:03.618Z,8.70
2017-10-23T18:33:03.619Z,7.40
2017-10-23T18:34:03.611Z,9.90
2017-10-23T18:35:03.608Z,9.40
2017-10-23T18:36:03.604Z,9.30
2017-10-23T18:37:03.599Z,8.60
2017-10-23T18:38:03.599Z,9.90
2017-10-23T18:39:03.589Z,9.70
2017-10-23T18:40:03.592Z,9.80
2017-10-23T18:41:03.589Z,9.70
2017-10-23T18:42:03.581Z,8.30
2017-10-23T18:43:03.577Z,7.60
2017-10-23T18:44:03.573Z,11.40
2017-10-23T18:45:03.569Z,8.10
2017-10-23T18:46:03.574Z,9.30
2017-10-23T18:47:03.559Z,5.80
2017-10-23T18:48:03.558Z,6.70
2017-10-23T18:49:03.560Z,6.30
2017-10-23T18:50:03.546Z,6.10
2017-10-23T18:51:03.548Z,6.60
2017-10-23T18:52:03.540Z,6.30
2017-10-23T18:53:03.538Z,6.40
2017-10-23T18:54:03.534Z,6.60
2017-10-23T18:55:03.529Z,7.60
2017-10-23T18:56:03.525Z,8.10
2017-10-23T18:57:03.522Z,7.30
2017-10-23T18:58:03.518Z,7.10
2017-10-23T18:59:03.525Z,7.40
2017-10-23T19:00:03.515Z,9.80
2017-10-23T19:01:03.506Z,7.60
2017-10-23T19:02:03.492Z,6.00
2017-10-23T19:03:03.503Z,6.70
2017-10-23T19:04:03.486Z,6.50
2017-10-23T19:05:03.492Z,5.60
2017-10-23T19:06:03.481Z,6.50
2017-10-23T19:07:03.477Z,5.80
2017-10-23T19:08:03.480Z,7.10
2017-10-23T19:09:03.473Z,8.10
2017-10-23T19:10:03.468Z,7.70
2017-10-23T19:11:03.466Z,6.30
2017-10-23T19:12:03.464Z,4.80
2017-10-23T19:13:03.461Z,6.80
2017-10-23T19:14:03.459Z,6.30
2017-10-23T19:15:03.448Z,7.50
2017-10-23T19:16:03.453Z,8.10
2017-10-23T19:17:03.440Z,8.70
2017-10-23T19:18:03.436Z,10.00
2017-10-23T19:19:03.439Z,7.60
2017-10-23T19:20:03.426Z,7.10
2017-10-23T19:21:03.428Z,6.10
2017-10-23T19:22:03.424Z,10.30
2017-10-23T19:23:03.414Z,8.30
2017-10-23T19:24:03.415Z,6.50
2017-10-23T19:25:03.410Z,8.50
2017-10-23T19:26:03.405Z,10.00
2017-10-23T19:27:03.399Z,8.20
2017-10-23T19:28:03.399Z,9.70
2017-10-23T19:29:03.394Z,10.20
2017-10-23T19:30:03.388Z,9.70
2017-10-23T19:31:03.382Z,9.90
2017-10-23T19:32:03.391Z,10.30
2017-10-23T19:33:03.382Z,9.00
2017-10-23T19:34:03.374Z,9.30
2017-10-23T19:35:03.368Z,8.70
2017-10-23T19:36:03.364Z,11.10
2017-10-23T19:37:03.361Z,10.90
2017-10-23T19:38:03.361Z,9.60
2017-10-23T19:39:03.351Z,10.10
2017-10-23T19:40:03.344Z,11.00
2017-10-23T19:41:03.350Z,8.60
2017-10-23T19:42:03.336Z,8.60
2017-10-23T19:43:03.336Z,8.30
2017-10-23T19:44:03.332Z,8.50
2017-10-23T19:45:03.328Z,9.50
2017-10-23T19:46:03.324Z,10.90
2017-10-23T19:47:03.317Z,9.30
2017-10-23T19:48:03.331Z,10.90
2017-10-23T19:49:03.314Z,8.10
2017-10-23T19:50:03.308Z,8.60
2017-10-23T19:51:03.304Z,7.50
2017-10-23T19:52:03.303Z,7.30
2017-10-23T19:53:03.301Z,8.90
2017-10-23T19:54:03.295Z,11.60
2017-10-23T19:55:03.288Z,11.70
2017-10-23T19:56:03.282Z,11.90
2017-10-23T19:57:03.281Z,9.70
2017-10-23T19:58:03.274Z,11.20
2017-10-23T19:59:03.280Z,7.20
2017-10-23T20:00:03.269Z,6.60
2017-10-23T20:01:03.265Z,7.10
2017-10-23T20:02:03.260Z,7.70
2017-10-23T20:03:03.256Z,8.70
2017-10-23T20:04:03.252Z,5.20
2017-10-23T20:05:03.255Z,6.10
2017-10-23T20:06:03.244Z,5.20
2017-10-23T20:07:03.239Z,7.80
2017-10-23T20:08:03.246Z,8.50
2017-10-23T20:09:03.233Z,8.70
2017-10-23T20:10:03.230Z,8.60
2017-10-23T20:11:03.234Z,8.60
2017-10-23T20:12:03.215Z,9.70
2017-10-23T20:13:03.219Z,10.00
2017-10-23T20:14:03.229Z,8.60
2017-10-23T20:15:03.233Z,10.30
2017-10-23T20:16:03.214Z,9.80
2017-10-23T20:17:03.199Z,8.10
2017-10-23T20:18:03.192Z,8.00
2017-10-23T20:19:03.195Z,7.50
2017-10-23T20:20:03.186Z,7.20
2017-10-23T20:21:03.184Z,6.80
2017-10-23T20:22:03.179Z,7.30
2017-10-23T20:23:03.180Z,8.00
2017-10-23T20:24:03.172Z,7.10
2017-10-23T20:25:04.091Z,7.80
2017-10-23T20:26:04.089Z,7.60
2017-10-23T20:27:03.153Z,6.70
2017-10-23T20:28:03.155Z,10.30
2017-10-23T20:29:03.157Z,8.50
2017-10-23T20:30:03.141Z,7.20
2017-10-23T20:31:04.088Z,6.30
2017-10-23T20:32:03.138Z,6.20
2017-10-23T20:33:03.142Z,5.50
2017-10-23T20:34:03.133Z,5.60
2017-10-23T20:35:03.130Z,7.90
2017-10-23T20:36:03.123Z,6.20
2017-10-23T20:37:03.117Z,5.70
2017-10-23T20:38:03.111Z,7.10
2017-10-23T20:39:03.110Z,6.70
2017-10-23T20:40:03.104Z,7.40
2017-10-23T20:41:03.109Z,6.70
2017-10-23T20:42:03.099Z,7.20
2017-10-23T20:43:03.103Z,6.30
2017-10-23T20:44:03.099Z,6.80
2017-10-23T20:45:03.086Z,5.40
2017-10-23T20:46:03.287Z,6.70
2017-10-23T20:47:03.081Z,6.40
2017-10-23T20:48:03.106Z,7.90
2017-10-23T20:49:03.073Z,6.10
2017-10-23T20:50:03.067Z,7.30
2017-10-23T20:51:03.098Z,10.90
2017-10-23T20:52:03.056Z,7.20
2017-10-23T20:53:03.054Z,7.10
2017-10-23T20:54:03.049Z,11.00
2017-10-23T20:55:03.052Z,7.80
2017-10-23T20:56:03.041Z,6.00
2017-10-23T20:57:03.037Z,7.00
2017-10-23T20:58:03.031Z,6.10
2017-10-23T20:59:03.019Z,5.70
2017-10-23T21:00:03.026Z,5.60
2017-10-23T21:01:03.023Z,5.30
2017-10-23T21:02:03.013Z,5.40
2017-10-23T21:03:03.133Z,9.20
2017-10-23T21:04:03.055Z,6.50
2017-10-23T21:05:03.011Z,7.90
2017-10-23T21:06:03.004Z,8.60
2017-10-23T21:07:02.994Z,6.80
2017-10-23T21:08:02.996Z,5.90
2017-10-23T21:09:02.989Z,6.00
2017-10-23T21:10:02.991Z,5.90
2017-10-23T21:11:02.981Z,5.80
2017-10-23T21:12:02.974Z,5.80
2017-10-23T21:13:02.970Z,6.10
2017-10-23T21:14:02.972Z,6.30
2017-10-23T21:15:02.964Z,5.70
2017-10-23T21:16:02.965Z,5.20
2017-10-23T21:17:02.958Z,5.90
2017-10-23T21:18:02.960Z,7.10
2017-10-23T21:19:02.957Z,5.90
2017-10-23T21:20:02.945Z,5.30
2017-10-23T21:21:02.936Z,5.90
2017-10-23T21:22:02.934Z,5.30
2017-10-23T21:23:02.931Z,6.10
2017-10-23T21:24:02.925Z,7.40
2017-10-23T21:25:02.934Z,6.30
2017-10-23T21:26:02.918Z,7.20
2017-10-23T21:27:02.911Z,9.70
2017-10-23T21:28:02.936Z,8.10
2017-10-23T21:29:02.909Z,8.70
2017-10-23T21:30:02.899Z,8.50
2017-10-23T21:31:02.895Z,10.70
2017-10-23T21:32:03.124Z,7.70
2017-10-23T21:33:02.889Z,9.10
2017-10-23T21:34:02.896Z,7.80
2017-10-23T21:35:02.880Z,7.60
2017-10-23T21:36:02.881Z,7.30
2017-10-23T21:37:02.869Z,7.60
2017-10-23T21:38:02.870Z,7.20
2017-10-23T21:39:02.862Z,7.40
2017-10-23T21:40:02.859Z,6.70
2017-10-23T21:41:02.864Z,6.30
2017-10-23T21:42:02.882Z,6.00
2017-10-23T21:43:02.877Z,6.00
2017-10-23T21:44:02.839Z,6.40
2017-10-23T21:45:02.849Z,6.80
2017-10-23T21:46:02.838Z,7.50
2017-10-23T21:47:02.827Z,8.40
2017-10-23T21:48:02.824Z,6.30
2017-10-23T21:49:02.817Z,7.40
2017-10-23T21:50:02.820Z,7.30
2017-10-23T21:51:02.818Z,7.40
2017-10-23T21:52:02.806Z,6.80
2017-10-23T21:53:02.801Z,7.10
2017-10-23T21:54:02.796Z,7.20
2017-10-23T21:55:02.794Z,7.30
2017-10-23T21:56:02.789Z,7.70
2017-10-23T21:57:02.784Z,9.20
2017-10-23T21:58:02.781Z,8.20
2017-10-23T21:59:02.776Z,9.50
2017-10-23T22:00:02.803Z,8.50
2017-10-23T22:01:02.772Z,8.00
2017-10-23T22:02:02.761Z,8.60
2017-10-23T22:03:02.760Z,9.00
2017-10-23T22:04:02.755Z,8.10
2017-10-23T22:05:02.757Z,8.50
2017-10-23T22:06:02.838Z,8.00
2017-10-23T22:07:02.740Z,7.80
2017-10-23T22:08:02.736Z,7.50
2017-10-23T22:09:02.733Z,7.50
2017-10-23T22:10:02.728Z,8.30
2017-10-23T22:11:02.719Z,8.10
2017-10-23T22:12:02.716Z,7.70
2017-10-23T22:13:02.716Z,7.60
2017-10-23T22:14:02.712Z,7.30
2017-10-23T22:15:02.705Z,7.60
2017-10-23T22:16:02.712Z,8.70
2017-10-23T22:17:02.696Z,8.20
2017-10-23T22:18:02.691Z,8.80
2017-10-23T22:19:02.686Z,7.80
2017-10-23T22:20:02.682Z,7.50
2017-10-23T22:21:02.679Z,7.70
2017-10-23T22:22:02.678Z,10.30
2017-10-23T22:23:02.830Z,8.80
2017-10-23T22:24:02.666Z,7.30
2017-10-23T22:25:02.660Z,8.40
2017-10-23T22:26:02.655Z,8.30
2017-10-23T22:27:02.651Z,10.20
2017-10-23T22:28:02.654Z,8.80
2017-10-23T22:29:02.656Z,9.60
2017-10-23T22:30:02.644Z,9.50
2017-10-23T22:31:02.632Z,9.50
2017-10-23T22:32:02.630Z,10.20
2017-10-23T22:33:02.623Z,9.40
2017-10-23T22:34:02.634Z,9.80
2017-10-23T22:35:02.611Z,9.30
2017-10-23T22:36:02.608Z,10.40
2017-10-23T22:37:02.605Z,9.60
2017-10-23T22:38:02.600Z,10.20
2017-10-23T22:39:02.596Z,10.60
2017-10-23T22:40:02.592Z,10.50
2017-10-23T22:41:02.587Z,11.70
2017-10-23T22:42:02.581Z,11.40
2017-10-23T22:43:02.579Z,10.80
2017-10-23T22:44:02.571Z,11.00
2017-10-23T22:45:02.575Z,11.70
2017-10-23T22:46:02.560Z,12.80
2017-10-23T22:47:02.557Z,11.90
2017-10-23T22:48:02.553Z,12.70
2017-10-23T22:49:02.553Z,11.20
2017-10-23T22:50:02.544Z,10.60
2017-10-23T22:51:02.539Z,11.60
2017-10-23T22:52:02.532Z,11.80
2017-10-23T22:53:02.531Z,11.50
2017-10-23T22:54:02.525Z,10.40
2017-10-23T22:55:02.519Z,11.20
2017-10-23T22:56:02.516Z,11.80
2017-10-23T22:57:02.509Z,11.20
2017-10-23T22:58:02.509Z,11.00
2017-10-23T22:59:02.512Z,11.60
2017-10-23T23:00:02.499Z,11.00
2017-10-23T23:01:02.491Z,11.30
2017-10-23T23:02:02.485Z,11.30
2017-10-23T23:03:02.482Z,12.00
2017-10-23T23:04:02.480Z,13.00
2017-10-23T23:05:02.493Z,12.00
2017-10-23T23:06:02.468Z,11.40
2017-10-23T23:07:02.464Z,11.30
2017-10-23T23:08:02.459Z,12.30
2017-10-23T23:09:02.450Z,11.90
2017-10-23T23:10:02.488Z,12.40
2017-10-23T23:11:02.444Z,11.20
2017-10-23T23:12:02.436Z,10.80
2017-10-23T23:13:02.432Z,11.50
2017-10-23T23:14:02.434Z,11.10
2017-10-23T23:15:02.423Z,12.40
2017-10-23T23:16:02.426Z,11.80
2017-10-23T23:17:02.419Z,11.60
2017-10-23T23:18:02.409Z,11.20
2017-10-23T23:19:02.404Z,12.20
2017-10-23T23:20:02.398Z,12.10
2017-10-23T23:21:02.396Z,11.90
2017-10-23T23:22:02.387Z,12.40
2017-10-23T23:23:02.378Z,12.30
2017-10-23T23:24:02.389Z,13.20
2017-10-23T23:25:02.376Z,11.80
2017-10-23T23:26:02.368Z,12.60
2017-10-23T23:27:02.363Z,11.20
2017-10-23T23:28:02.365Z,11.20
2017-10-23T23:29:02.358Z,12.30
2017-10-23T23:30:02.350Z,12.50
2017-10-23T23:31:02.346Z,12.90
2017-10-23T23:32:02.339Z,12.50
2017-10-23T23:33:02.334Z,12.00
2017-10-23T23:34:02.329Z,12.20
2017-10-23T23:35:02.325Z,12.60
2017-10-23T23:36:02.333Z,13.30
2017-10-23T23:37:02.324Z,13.20
2017-10-23T23:38:02.313Z,12.90
2017-10-23T23:39:02.307Z,13.90
2017-10-23T23:40:02.453Z,12.00
2017-10-23T23:41:02.291Z,12.00
2017-10-23T23:42:02.290Z,13.00
2017-10-23T23:43:02.292Z,14.60
2017-10-23T23:44:02.282Z,14.20
2017-10-23T23:45:02.280Z,13.20
2017-10-23T23:46:02.274Z,13.90
2017-10-23T23:47:02.270Z,13.20
2017-10-23T23:48:02.265Z,14.60
2017-10-23T23:49:02.261Z,14.40
2017-10-23T23:50:02.252Z,14.10
2017-10-23T23:51:02.250Z,15.20
2017-10-23T23:52:02.245Z,16.00
2017-10-23T23:53:02.242Z,15.50
2017-10-23T23:54:02.232Z,15.40
2017-10-23T23:55:02.227Z,14.70
2017-10-23T23:56:02.228Z,16.70
2017-10-23T23:57:02.223Z,15.60
2017-10-23T23:58:02.216Z,17.60
2017-10-23T23:59:02.213Z,15.40
